KIAH/IAH METAR and TAF weather

Enter ICAO airport designator
Station Type Date Time Source
KIAH METAR 2019/02/20 23:53 UTC NOAA

KIAH 202353Z 01006KT 10SM FEW070 FEW250 16/06 A2994 RMK AO2 SLP137 T01610061 10183 20133 53001


Station Type Date Time Source
KIAH Decoded METAR 2019/02/20 23:53 UTC NOAA

HOUSTON INTERCONTINENTAL, TX, United States (KIAH) 30-00N 095-22W 36M
Feb 20, 2019 - 06:53 PM EST / 2019.02.20 2353 UTC
Wind: from the N (010 degrees) at 7 MPH (6 KT):0
Visibility: 10 mile(s):0
Sky conditions: mostly clear
Temperature: 61.0 F (16.1 C)
Dew Point: 43.0 F (6.1 C)
Relative Humidity: 51%
Pressure (altimeter): 29.94 in. Hg (1013 hPa)
Pressure tendency: 0.00 inches (0.1 hPa) higher than three hours ago
ob: KIAH 202353Z 01006KT 10SM FEW070 FEW250 16/06 A2994 RMK AO2 SLP137 T01610061 10183 20133 53001
cycle: 0

Station Type Date Time Source
KIAH TAF 2019/02/20 21:03 UTC NOAA

TAF
AMD KIAH 202100Z 2021/2124 01006KT P6SM FEW250
FM210900 05005KT P6SM SCT060 BKN150
FM211200 06008KT P6SM OVC035
FM211500 06008KT P6SM -DZ BKN008 OVC015
FM211800 05008KT P6SM VCSH BKN015


Example: see airport list